Airfield :
LOGIN :

Register | Disclaimer

   EN    FR    IT 

 










Legend :    VFR   Marginal VFR   IFR   Intensive IFR   Very Intensive IFR
Visi :
Ceiling :
>= 8 km
>= 3000ft
5 to 8 km
1000 to 3000 ft
1500m to 5 km
500 to 1000 ft
800 to 1500m
200 to 500 ft
< 800m
< 200 ft
Symbols :   Thunderstorms  Fog  Heavy snow  Heavy precipitations  Wind > 20 kt
SIGMETs :     Misc.  Thunderstorms  Icing  Turbulence  Mountain Waves  Volcanic Ashes







- Airport Elevation : 287 ft
- Download approach charts


LFRL - Lanveoc Poulmic

CURRENT METAR :
  • 250400Z AUTO 20009KT 9999 FEW044/// SCT072/// BKN150/// ///CB 08/07 Q0992

EXPIRED METARs :
  • 250330Z AUTO 18010KT 9999 -RA FEW020/// SCT035/// BKN044/// ///CB 09/06 Q0992
  • 250300Z AUTO 20010KT 9999 FEW042/// BKN054/// BKN084/// ///CB 09/07 Q0991
  • 250230Z AUTO 20010KT 9999 FEW020/// BKN047/// OVC064/// ///CB 09/07 Q0991
  • 250200Z AUTO 20011KT 9999 SCT037/// BKN046/// BKN074/// ///CB 09/07 Q0991
  • 250130Z AUTO 22013KT 9999 SCT020/// BKN025/// BKN032/// ///TCU 09/07 Q0991

TAF TAF LFRL
Valid from the 24 at 12:00 until the 25 at 12:00 UTC


241100Z 2412/2512 20014KT 9999 SCT025TCU BKN030
TEMPO 2412/2420 15015G25KT SHRA BKN015TCU
PROB30
TEMPO 2415/2418 TSRA BKN012CB
BECMG 2419/2421 14010KT BKN010 FEW015TCU
TEMPO 2421/2501 3000 RADZ BKN008 OVC010
BECMG 2500/2502 21015G25KT FEW020TCU SCT030
TEMPO 2506/2512 4000 SHRA SCT015CB
PROB40
TEMPO 2509/2512 TSRA BKN010CB
No reported NOTAMs for that airfield.



MET'MAP, your aeronautical weather chart ! - Copyright ORBIFLY December 2007 - Disclaimer

ORBIFLY MET'MAP TEAM :

Programming & Development : Alexandra Zaïnal
Concept & Development : Baudouin d'Aumeries
Co-Development & Prog : Marc-Olivier Méhu
Technical & hardware support : Manuel Goepfert

Contact : metmap@orbifly.com




SOURCES & CREDITS :

   NOAA